Time;durP1;ratioP1;P1;durP2;ratioP2;P2;SDS_P1;SDS_P2;PMS_P1;PMS_P2;Temp;Humidity;BMP_temperature;BMP_pressure;BME280_temperature;BME280_humidity;BME280_pressure;Samples;Min_cycle;Max_cycle;Signal;HPM_P1;HPM_P2
2022/03/28 00:01:53;;;;;;;10.30;1.85;;;;;;;;;;5068226;28;20372;-74
2022/03/28 00:04:19;;;;;;;9.30;2.17;;;;;;;;;;5068010;28;20361;-74
2022/03/28 00:06:45;;;;;;;22.17;2.00;;;;;;;;;;5067939;28;20123;-74
2022/03/28 00:09:11;;;;;;;20.92;2.17;;;;;;;;;;5067528;28;20055;-73
2022/03/28 00:11:37;;;;;;;27.73;2.40;;;;;;;;;;5067865;28;20075;-73
2022/03/28 00:14:04;;;;;;;13.38;2.03;;;;;;;;;;5050901;28;20488;-74
2022/03/28 00:16:30;;;;;;;16.08;2.13;;;;;;;;;;5067599;28;20037;-74
2022/03/28 00:18:56;;;;;;;44.33;2.70;;;;;;;;;;5067479;28;20044;-74
2022/03/28 00:21:22;;;;;;;40.60;2.33;;;;;;;;;;5067751;28;20054;-73
2022/03/28 00:23:49;;;;;;;37.95;2.58;;;;;;;;;;5067604;28;20051;-74
2022/03/28 00:26:15;;;;;;;36.80;2.60;;;;;;;;;;5068488;28;20048;-74
2022/03/28 00:28:41;;;;;;;62.83;3.30;;;;;;;;;;5067179;28;20056;-73
2022/03/28 00:31:07;;;;;;;21.23;2.35;;;;;;;;;;5067375;28;20480;-74
2022/03/28 00:33:33;;;;;;;25.67;2.15;;;;;;;;;;5036037;28;20119;-74
2022/03/28 00:35:59;;;;;;;14.48;2.17;;;;;;;;;;5054411;28;20040;-78
2022/03/28 00:38:25;;;;;;;52.92;3.20;;;;;;;;;;5072454;28;20064;-74
2022/03/28 00:40:51;;;;;;;24.92;2.40;;;;;;;;;;5071033;28;20029;-73
2022/03/28 00:43:17;;;;;;;32.35;2.95;;;;;;;;;;5070553;28;20032;-74
2022/03/28 00:45:44;;;;;;;21.50;2.90;;;;;;;;;;5071057;28;20071;-74
2022/03/28 00:48:11;;;;;;;23.17;2.97;;;;;;;;;;5070368;28;20044;-74
2022/03/28 00:50:37;;;;;;;20.27;3.17;;;;;;;;;;5070919;28;20048;-74
2022/03/28 00:53:05;;;;;;;24.92;3.15;;;;;;;;;;5070897;28;20071;-78
2022/03/28 00:55:31;;;;;;;24.38;2.92;;;;;;;;;;5070988;28;20049;-79
2022/03/28 00:57:58;;;;;;;22.88;3.20;;;;;;;;;;5070655;28;20552;-79
2022/03/28 01:00:24;;;;;;;38.90;3.25;;;;;;;;;;5071076;28;20496;-78
2022/03/28 01:02:50;;;;;;;40.30;3.45;;;;;;;;;;5071929;28;20129;-79
2022/03/28 01:05:17;;;;;;;26.67;3.10;;;;;;;;;;5052749;28;20093;-79
2022/03/28 01:07:43;;;;;;;50.33;3.63;;;;;;;;;;5053884;28;20039;-79
2022/03/28 01:10:10;;;;;;;61.85;3.53;;;;;;;;;;5070568;28;20040;-79
2022/03/28 01:12:37;;;;;;;20.13;2.92;;;;;;;;;;5070692;28;20523;-74
2022/03/28 01:15:03;;;;;;;22.35;2.70;;;;;;;;;;5070028;28;20151;-74
2022/03/28 01:20:14;;;;;;;40.50;3.45;;;;;;;;;;5070509;28;20384;-74
2022/03/28 01:22:41;;;;;;;55.53;3.45;;;;;;;;;;5070570;28;20046;-74
2022/03/28 01:25:07;;;;;;;51.80;3.30;;;;;;;;;;5070181;28;20423;-79
2022/03/28 01:27:36;;;;;;;66.72;3.97;;;;;;;;;;5069880;28;20060;-78
2022/03/28 01:30:04;;;;;;;29.48;2.92;;;;;;;;;;5070228;28;20107;-78
2022/03/28 01:32:30;;;;;;;32.13;3.22;;;;;;;;;;5070319;28;20094;-79
2022/03/28 01:34:56;;;;;;;38.67;3.78;;;;;;;;;;5070090;28;20170;-75
2022/03/28 01:37:22;;;;;;;21.55;3.03;;;;;;;;;;5053319;28;20119;-75
2022/03/28 01:39:49;;;;;;;36.83;3.88;;;;;;;;;;5069360;28;20072;-75
2022/03/28 01:42:15;;;;;;;52.97;3.97;;;;;;;;;;5069131;28;20041;-74
2022/03/28 01:44:41;;;;;;;11.70;2.85;;;;;;;;;;5069837;28;20063;-79
2022/03/28 01:47:08;;;;;;;29.70;3.72;;;;;;;;;;5069823;28;20393;-78
2022/03/28 01:49:34;;;;;;;15.25;2.85;;;;;;;;;;5069618;28;20044;-79
2022/03/28 01:52:00;;;;;;;24.13;3.42;;;;;;;;;;5069161;28;20045;-79
2022/03/28 01:54:26;;;;;;;22.75;3.60;;;;;;;;;;5069425;28;20120;-79
2022/03/28 01:56:52;;;;;;;17.75;3.70;;;;;;;;;;5069354;28;20083;-78
2022/03/28 01:59:18;;;;;;;17.35;3.47;;;;;;;;;;5069225;28;20044;-76
2022/03/28 02:01:44;;;;;;;30.65;4.18;;;;;;;;;;5069449;28;20499;-77
2022/03/28 02:04:10;;;;;;;31.27;3.97;;;;;;;;;;5070506;28;20040;-78
2022/03/28 02:06:37;;;;;;;53.03;4.70;;;;;;;;;;5070875;28;20089;-78
2022/03/28 02:09:03;;;;;;;55.15;5.38;;;;;;;;;;5052194;28;20052;-78
2022/03/28 02:11:29;;;;;;;19.55;3.92;;;;;;;;;;5069011;28;20041;-79
2022/03/28 02:13:55;;;;;;;28.42;4.28;;;;;;;;;;5052606;28;20045;-79
2022/03/28 02:16:22;;;;;;;34.38;4.63;;;;;;;;;;5052499;28;20044;-79
2022/03/28 02:18:48;;;;;;;33.72;4.95;;;;;;;;;;5069336;28;20044;-74
2022/03/28 02:21:14;;;;;;;36.00;4.80;;;;;;;;;;5069146;28;20317;-74
2022/03/28 02:23:40;;;;;;;43.38;5.10;;;;;;;;;;5052418;28;20044;-74
2022/03/28 02:26:07;;;;;;;38.13;4.80;;;;;;;;;;5068753;28;20053;-75
2022/03/28 02:28:33;;;;;;;35.25;4.78;;;;;;;;;;5069049;28;20090;-75
2022/03/28 02:31:00;;;;;;;33.83;4.95;;;;;;;;;;5052003;28;20251;-75
2022/03/28 02:33:26;;;;;;;33.75;5.20;;;;;;;;;;5069210;28;20040;-78
2022/03/28 02:35:52;;;;;;;39.83;5.22;;;;;;;;;;5068820;28;20051;-79
2022/03/28 02:38:18;;;;;;;32.25;5.03;;;;;;;;;;5068479;28;20040;-79
2022/03/28 02:40:44;;;;;;;28.15;5.03;;;;;;;;;;5052691;28;20041;-79
2022/03/28 02:43:10;;;;;;;56.35;6.68;;;;;;;;;;5068902;28;20437;-79
2022/03/28 02:45:37;;;;;;;32.83;6.05;;;;;;;;;;5069006;28;20106;-79
2022/03/28 02:48:05;;;;;;;19.45;4.90;;;;;;;;;;5068382;28;20041;-79
2022/03/28 02:50:33;;;;;;;30.23;5.63;;;;;;;;;;5052007;28;20040;-79
2022/03/28 02:52:59;;;;;;;32.00;5.93;;;;;;;;;;5069475;28;20040;-79
2022/03/28 02:55:25;;;;;;;38.78;5.80;;;;;;;;;;5068354;28;20040;-79
2022/03/28 02:57:52;;;;;;;44.67;5.88;;;;;;;;;;5069791;28;20039;-80
2022/03/28 03:00:18;;;;;;;17.10;4.95;;;;;;;;;;5068380;28;20123;-79
2022/03/28 03:02:45;;;;;;;29.70;5.43;;;;;;;;;;5062196;28;20106;-79
2022/03/28 03:05:11;;;;;;;30.55;5.97;;;;;;;;;;5067571;28;20043;-80
2022/03/28 03:07:38;;;;;;;31.45;6.13;;;;;;;;;;5067497;28;20044;-79
2022/03/28 03:10:04;;;;;;;36.80;5.82;;;;;;;;;;5069371;28;20075;-79
2022/03/28 03:12:30;;;;;;;27.88;6.03;;;;;;;;;;5068585;28;20059;-79
2022/03/28 03:14:57;;;;;;;23.20;5.93;;;;;;;;;;5068644;28;20446;-80
2022/03/28 03:17:23;;;;;;;31.73;6.38;;;;;;;;;;5068192;28;20055;-80
2022/03/28 03:19:49;;;;;;;41.00;6.03;;;;;;;;;;5051315;28;20040;-79
2022/03/28 03:22:15;;;;;;;40.00;6.32;;;;;;;;;;5067464;28;20128;-79
2022/03/28 03:24:42;;;;;;;26.92;5.97;;;;;;;;;;5068457;28;20492;-79
2022/03/28 03:27:08;;;;;;;67.93;7.35;;;;;;;;;;5067967;28;20400;-79
2022/03/28 03:29:35;;;;;;;93.63;7.45;;;;;;;;;;5069588;28;20506;-78
2022/03/28 03:32:03;;;;;;;81.78;8.10;;;;;;;;;;5051338;28;20123;-79
2022/03/28 03:34:29;;;;;;;69.95;6.88;;;;;;;;;;5068301;28;20055;-79
2022/03/28 03:36:55;;;;;;;70.78;7.82;;;;;;;;;;5068094;28;20048;-79
2022/03/28 03:39:22;;;;;;;40.70;7.00;;;;;;;;;;5068100;28;20056;-80
2022/03/28 03:41:49;;;;;;;127.57;9.82;;;;;;;;;;5051715;28;20070;-74
2022/03/28 03:44:15;;;;;;;51.28;6.30;;;;;;;;;;5068196;28;20476;-74
2022/03/28 03:46:41;;;;;;;68.57;7.80;;;;;;;;;;5068093;28;20040;-74
2022/03/28 03:49:08;;;;;;;33.78;7.32;;;;;;;;;;5067743;28;20293;-74
2022/03/28 03:51:35;;;;;;;35.13;7.18;;;;;;;;;;5051133;28;20059;-80
2022/03/28 03:54:01;;;;;;;28.80;6.25;;;;;;;;;;5067689;28;20041;-80
2022/03/28 03:56:28;;;;;;;33.05;7.10;;;;;;;;;;5051361;28;20041;-80
2022/03/28 03:58:54;;;;;;;25.48;6.95;;;;;;;;;;5067737;28;20546;-80
2022/03/28 04:01:21;;;;;;;40.72;7.28;;;;;;;;;;5045892;28;20120;-80
2022/03/28 04:03:47;;;;;;;47.08;8.25;;;;;;;;;;5067314;28;20403;-80
2022/03/28 04:06:13;;;;;;;51.72;8.30;;;;;;;;;;5049641;28;20044;-79
2022/03/28 04:08:40;;;;;;;38.85;8.18;;;;;;;;;;5070106;28;22131;-79
2022/03/28 04:11:06;;;;;;;43.55;7.35;;;;;;;;;;5071313;28;20119;-79
2022/03/28 04:13:36;;;;;;;39.53;8.40;;;;;;;;;;5071786;28;20496;-79
2022/03/28 04:16:02;;;;;;;27.65;6.90;;;;;;;;;;5054611;28;20041;-79
2022/03/28 04:18:29;;;;;;;60.63;8.05;;;;;;;;;;5071497;28;20098;-79
2022/03/28 04:20:55;;;;;;;59.92;8.25;;;;;;;;;;5054611;28;20047;-79
2022/03/28 04:23:22;;;;;;;41.65;7.75;;;;;;;;;;5071214;28;20076;-80
2022/03/28 04:25:49;;;;;;;49.40;8.77;;;;;;;;;;5071467;28;20549;-79
2022/03/28 04:28:15;;;;;;;84.70;9.18;;;;;;;;;;5071523;28;20044;-78
2022/03/28 04:30:41;;;;;;;34.92;7.80;;;;;;;;;;5071336;28;20040;-79
2022/03/28 04:33:09;;;;;;;88.70;9.40;;;;;;;;;;5037782;28;20036;-79
2022/03/28 04:35:35;;;;;;;59.28;8.80;;;;;;;;;;5071366;28;20730;-75
2022/03/28 04:38:03;;;;;;;99.43;9.13;;;;;;;;;;5072361;28;20045;-74
2022/03/28 04:40:29;;;;;;;69.57;8.52;;;;;;;;;;5072195;28;20547;-74
2022/03/28 04:42:55;;;;;;;55.22;7.85;;;;;;;;;;5071327;28;20479;-74
2022/03/28 04:45:21;;;;;;;46.25;8.55;;;;;;;;;;5070888;28;20373;-75
2022/03/28 04:47:47;;;;;;;81.20;7.95;;;;;;;;;;5071039;28;20036;-74
2022/03/28 04:50:13;;;;;;;52.92;8.23;;;;;;;;;;5054186;28;20388;-75
2022/03/28 04:52:40;;;;;;;55.58;8.43;;;;;;;;;;5070878;28;20033;-75
2022/03/28 04:55:06;;;;;;;56.72;8.50;;;;;;;;;;5070416;28;20116;-75
2022/03/28 04:57:32;;;;;;;55.30;7.97;;;;;;;;;;5070335;28;20040;-75
2022/03/28 04:59:59;;;;;;;83.32;9.35;;;;;;;;;;5053480;28;20312;-75
2022/03/28 05:02:25;;;;;;;50.65;8.00;;;;;;;;;;5070402;28;20488;-75
2022/03/28 05:04:51;;;;;;;72.30;7.47;;;;;;;;;;5069997;28;20117;-75
2022/03/28 05:07:27;;;;;;;95.80;8.60;;;;;;;;;;5053459;28;20036;-75
2022/03/28 05:09:53;;;;;;;54.80;7.57;;;;;;;;;;5053916;28;20055;-75
2022/03/28 05:12:24;;;;;;;29.17;6.30;;;;;;;;;;5070239;28;20039;-75
2022/03/28 05:14:50;;;;;;;70.50;8.38;;;;;;;;;;5070251;28;20047;-74
2022/03/28 05:17:37;;;;;;;72.90;8.10;;;;;;;;;;5052830;28;20094;-75
2022/03/28 05:20:05;;;;;;;76.25;8.38;;;;;;;;;;5068633;28;20109;-74
2022/03/28 05:22:31;;;;;;;65.35;7.97;;;;;;;;;;5070422;28;20044;-75
2022/03/28 05:24:58;;;;;;;91.75;8.93;;;;;;;;;;5070420;28;20040;-75
2022/03/28 05:27:24;;;;;;;97.10;9.40;;;;;;;;;;5053060;28;20148;-75
2022/03/28 05:29:51;;;;;;;100.82;9.00;;;;;;;;;;5053349;28;20076;-75
2022/03/28 05:32:17;;;;;;;105.50;9.20;;;;;;;;;;5071228;28;20467;-75
2022/03/28 05:34:43;;;;;;;110.13;10.15;;;;;;;;;;5069970;28;20076;-75
2022/03/28 05:37:13;;;;;;;93.72;9.55;;;;;;;;;;5069715;28;20036;-75
2022/03/28 05:39:39;;;;;;;61.53;9.05;;;;;;;;;;5069879;28;20036;-75
2022/03/28 05:42:07;;;;;;;66.30;8.55;;;;;;;;;;5069633;28;20068;-75
2022/03/28 05:44:33;;;;;;;36.92;8.10;;;;;;;;;;5070197;28;20044;-75
2022/03/28 05:46:59;;;;;;;84.35;8.07;;;;;;;;;;5053617;28;20369;-74
2022/03/28 05:49:25;;;;;;;50.42;6.85;;;;;;;;;;5069374;28;20098;-75
2022/03/28 05:51:52;;;;;;;72.65;7.55;;;;;;;;;;5052967;28;20093;-75
2022/03/28 05:54:18;;;;;;;34.88;7.45;;;;;;;;;;5069733;28;20037;-75
2022/03/28 05:56:44;;;;;;;84.70;8.55;;;;;;;;;;5069517;28;20056;-75
2022/03/28 05:59:11;;;;;;;46.45;7.43;;;;;;;;;;5069199;28;20039;-75
2022/03/28 06:01:37;;;;;;;44.55;7.90;;;;;;;;;;5068786;28;20071;-75
2022/03/28 06:04:04;;;;;;;45.13;7.30;;;;;;;;;;5068893;28;20070;-75
2022/03/28 06:06:31;;;;;;;46.30;8.70;;;;;;;;;;5069438;28;20040;-75
2022/03/28 06:08:57;;;;;;;78.05;8.25;;;;;;;;;;5069671;28;20205;-75
2022/03/28 06:11:23;;;;;;;57.83;7.25;;;;;;;;;;5068531;28;20032;-75
2022/03/28 06:13:49;;;;;;;37.75;6.93;;;;;;;;;;5069189;28;20076;-75
2022/03/28 06:16:16;;;;;;;56.10;7.90;;;;;;;;;;5068776;28;20046;-75
2022/03/28 06:18:42;;;;;;;58.95;7.93;;;;;;;;;;5069166;28;20036;-74
2022/03/28 06:21:08;;;;;;;76.03;8.18;;;;;;;;;;5069965;28;20048;-75
2022/03/28 06:23:35;;;;;;;88.22;8.80;;;;;;;;;;5052743;28;20072;-75
2022/03/28 06:26:02;;;;;;;37.63;8.13;;;;;;;;;;5069074;28;20120;-75
2022/03/28 06:28:28;;;;;;;51.75;7.85;;;;;;;;;;5069128;28;20464;-75
2022/03/28 06:30:55;;;;;;;128.25;10.35;;;;;;;;;;5068506;28;20055;-75
2022/03/28 06:33:21;;;;;;;56.10;8.93;;;;;;;;;;5068922;28;20094;-75
2022/03/28 06:35:47;;;;;;;82.57;8.90;;;;;;;;;;5070132;28;20091;-75
2022/03/28 06:38:14;;;;;;;49.95;7.97;;;;;;;;;;5051862;28;20071;-75
2022/03/28 06:40:40;;;;;;;35.75;6.93;;;;;;;;;;5052661;28;20506;-75
2022/03/28 06:43:06;;;;;;;39.92;8.13;;;;;;;;;;5068572;28;20502;-79
2022/03/28 06:45:33;;;;;;;68.93;8.85;;;;;;;;;;5070346;28;20278;-75
2022/03/28 06:47:59;;;;;;;67.38;9.85;;;;;;;;;;5069142;28;20434;-75
2022/03/28 06:50:27;;;;;;;71.53;8.63;;;;;;;;;;5068486;28;20476;-75
2022/03/28 06:52:54;;;;;;;69.53;8.65;;;;;;;;;;5068416;28;20110;-75
2022/03/28 06:55:20;;;;;;;62.20;8.68;;;;;;;;;;5068211;28;20036;-75
2022/03/28 06:57:47;;;;;;;36.42;7.30;;;;;;;;;;5052011;28;20097;-74
2022/03/28 07:00:13;;;;;;;30.85;7.28;;;;;;;;;;5069479;28;20040;-74
2022/03/28 07:02:39;;;;;;;56.22;7.10;;;;;;;;;;5068319;28;20036;-74
2022/03/28 07:05:07;;;;;;;21.67;6.53;;;;;;;;;;5068277;28;20503;-75
2022/03/28 07:07:49;;;;;;;18.52;6.18;;;;;;;;;;5067769;28;20074;-74
2022/03/28 07:10:16;;;;;;;14.98;5.93;;;;;;;;;;5069620;28;20032;-74
2022/03/28 07:12:42;;;;;;;26.23;6.22;;;;;;;;;;5068366;28;20040;-74
2022/03/28 07:15:10;;;;;;;28.33;6.70;;;;;;;;;;5068446;28;20036;-74
2022/03/28 07:17:46;;;;;;;13.70;6.40;;;;;;;;;;5069398;28;20115;-75
2022/03/28 07:20:12;;;;;;;40.50;8.95;;;;;;;;;;5067752;28;20173;-75
2022/03/28 07:22:39;;;;;;;19.40;7.53;;;;;;;;;;5068230;28;20468;-75
2022/03/28 07:25:05;;;;;;;16.70;7.80;;;;;;;;;;5051529;28;20383;-75
2022/03/28 07:27:36;;;;;;;18.08;7.65;;;;;;;;;;5068417;28;20105;-75
2022/03/28 07:30:02;;;;;;;18.83;7.63;;;;;;;;;;5068450;28;20070;-75
2022/03/28 07:32:28;;;;;;;36.35;7.30;;;;;;;;;;5067631;28;20043;-75
2022/03/28 07:34:54;;;;;;;32.35;8.13;;;;;;;;;;5051678;28;20091;-75
2022/03/28 07:37:20;;;;;;;16.52;8.05;;;;;;;;;;5051152;28;20504;-79
2022/03/28 07:39:46;;;;;;;18.92;7.40;;;;;;;;;;5068131;28;20040;-79
2022/03/28 07:42:13;;;;;;;22.40;7.45;;;;;;;;;;5070188;28;20036;-79
2022/03/28 07:44:41;;;;;;;22.58;8.30;;;;;;;;;;5072445;28;20036;-79
2022/03/28 07:47:08;;;;;;;22.00;7.60;;;;;;;;;;5072158;28;20487;-79
2022/03/28 07:49:38;;;;;;;14.30;7.93;;;;;;;;;;5055614;28;20038;-79
2022/03/28 07:52:08;;;;;;;19.63;7.82;;;;;;;;;;5071770;28;20067;-79
2022/03/28 07:54:36;;;;;;;22.67;8.10;;;;;;;;;;5055926;28;20040;-79
2022/03/28 07:57:02;;;;;;;18.52;6.75;;;;;;;;;;5055185;28;20051;-78
2022/03/28 07:59:29;;;;;;;15.80;7.70;;;;;;;;;;5071711;28;20400;-78
2022/03/28 08:01:55;;;;;;;17.08;7.60;;;;;;;;;;5055464;28;20120;-79
2022/03/28 08:04:21;;;;;;;17.38;7.82;;;;;;;;;;5071842;28;20094;-79
2022/03/28 08:06:47;;;;;;;25.02;8.57;;;;;;;;;;5072219;28;20488;-79
2022/03/28 08:09:14;;;;;;;19.23;7.75;;;;;;;;;;5071521;28;20056;-79
2022/03/28 08:11:42;;;;;;;17.75;7.82;;;;;;;;;;5071616;28;20075;-79
2022/03/28 08:14:08;;;;;;;13.10;7.25;;;;;;;;;;5071157;28;20056;-78
2022/03/28 08:16:34;;;;;;;13.95;7.03;;;;;;;;;;5071585;28;20110;-78
2022/03/28 08:19:01;;;;;;;16.70;8.02;;;;;;;;;;5071856;28;20099;-79
2022/03/28 08:21:27;;;;;;;11.85;6.47;;;;;;;;;;5071324;28;20391;-74
2022/03/28 08:23:53;;;;;;;11.65;6.03;;;;;;;;;;5071217;28;20079;-75
2022/03/28 08:26:20;;;;;;;13.85;6.63;;;;;;;;;;5054731;28;20064;-77
2022/03/28 08:28:46;;;;;;;17.23;6.68;;;;;;;;;;5072880;28;20044;-78
2022/03/28 08:31:13;;;;;;;12.02;6.80;;;;;;;;;;5071367;28;20122;-78
2022/03/28 08:33:39;;;;;;;10.60;5.85;;;;;;;;;;5071206;28;20067;-79
2022/03/28 08:36:05;;;;;;;13.68;6.57;;;;;;;;;;5054877;28;20499;-79
2022/03/28 08:38:34;;;;;;;11.63;6.47;;;;;;;;;;5071456;28;20101;-79
2022/03/28 08:41:01;;;;;;;13.27;7.60;;;;;;;;;;5071456;28;20041;-79
2022/03/28 08:43:27;;;;;;;11.38;6.28;;;;;;;;;;5054186;28;20599;-79
2022/03/28 08:45:53;;;;;;;13.45;7.00;;;;;;;;;;5071249;28;20060;-78
2022/03/28 08:48:19;;;;;;;10.50;5.88;;;;;;;;;;5070855;28;20045;-78
2022/03/28 08:50:47;;;;;;;10.60;6.07;;;;;;;;;;5071156;28;20044;-78
2022/03/28 08:53:14;;;;;;;10.95;6.43;;;;;;;;;;5071606;28;20132;-78
2022/03/28 08:55:41;;;;;;;10.20;6.00;;;;;;;;;;5070485;28;20036;-79
2022/03/28 08:58:08;;;;;;;10.27;5.78;;;;;;;;;;5053743;28;20032;-79
2022/03/28 09:00:34;;;;;;;10.48;5.53;;;;;;;;;;5071195;28;20435;-79
2022/03/28 09:03:00;;;;;;;9.80;4.78;;;;;;;;;;5070866;28;20440;-78
2022/03/28 09:05:31;;;;;;;12.30;6.00;;;;;;;;;;5053875;28;20051;-78
2022/03/28 09:07:58;;;;;;;11.50;5.00;;;;;;;;;;5070269;28;20043;-78
2022/03/28 09:10:25;;;;;;;8.70;4.70;;;;;;;;;;5068067;28;20044;-78
2022/03/28 09:12:58;;;;;;;9.63;4.38;;;;;;;;;;5037784;28;20145;-77
2022/03/28 09:15:24;;;;;;;9.15;4.30;;;;;;;;;;5070320;28;20040;-77
2022/03/28 09:17:59;;;;;;;9.30;4.53;;;;;;;;;;5071526;28;20105;-78
2022/03/28 09:20:25;;;;;;;7.83;3.90;;;;;;;;;;5067949;28;20123;-78
2022/03/28 09:22:52;;;;;;;9.52;4.55;;;;;;;;;;5070289;28;20064;-78
2022/03/28 09:25:18;;;;;;;10.48;5.13;;;;;;;;;;5071250;28;20683;-77
2022/03/28 09:27:45;;;;;;;8.40;3.80;;;;;;;;;;5071313;28;20071;-75
2022/03/28 09:30:16;;;;;;;11.32;5.32;;;;;;;;;;5069886;28;20040;-75
2022/03/28 09:32:43;;;;;;;10.00;5.30;;;;;;;;;;5070057;28;20041;-75
2022/03/28 09:35:12;;;;;;;12.98;6.07;;;;;;;;;;5070050;28;20065;-74
2022/03/28 09:37:55;;;;;;;12.25;5.78;;;;;;;;;;5069838;28;20057;-74
2022/03/28 09:40:26;;;;;;;15.10;7.18;;;;;;;;;;5070888;28;20033;-74
2022/03/28 09:42:52;;;;;;;14.45;6.95;;;;;;;;;;5069800;28;20036;-75
2022/03/28 09:45:20;;;;;;;13.63;6.57;;;;;;;;;;5069637;28;20507;-76
2022/03/28 09:48:00;;;;;;;13.65;6.82;;;;;;;;;;5070332;28;20478;-76
2022/03/28 09:50:30;;;;;;;13.15;6.43;;;;;;;;;;5052895;28;20040;-76
2022/03/28 09:52:57;;;;;;;13.82;6.82;;;;;;;;;;5070088;28;20545;-76
2022/03/28 09:55:23;;;;;;;13.65;7.05;;;;;;;;;;5036168;28;20067;-75
2022/03/28 09:57:49;;;;;;;13.55;7.05;;;;;;;;;;5069688;28;20036;-76
2022/03/28 10:00:19;;;;;;;12.70;6.43;;;;;;;;;;5069341;28;20045;-75
2022/03/28 10:02:46;;;;;;;11.73;6.30;;;;;;;;;;5052899;28;20040;-74
2022/03/28 10:05:13;;;;;;;11.73;5.95;;;;;;;;;;5052125;28;20545;-74
2022/03/28 10:07:39;;;;;;;12.82;5.93;;;;;;;;;;5069104;28;20041;-75
2022/03/28 10:10:06;;;;;;;10.65;5.57;;;;;;;;;;5069563;28;20047;-75
2022/03/28 10:12:33;;;;;;;10.48;5.53;;;;;;;;;;5069817;28;20510;-75
2022/03/28 10:15:00;;;;;;;11.32;5.90;;;;;;;;;;5069590;28;20114;-75
2022/03/28 10:17:30;;;;;;;11.40;6.25;;;;;;;;;;5068911;28;20055;-75
2022/03/28 10:19:57;;;;;;;13.18;6.07;;;;;;;;;;5069439;28;20043;-75
2022/03/28 10:22:29;;;;;;;12.75;6.28;;;;;;;;;;5070200;28;20139;-75
2022/03/28 10:24:57;;;;;;;12.93;6.47;;;;;;;;;;5069046;28;20041;-75
2022/03/28 10:27:24;;;;;;;11.60;6.22;;;;;;;;;;5068918;28;20088;-78
2022/03/28 10:29:52;;;;;;;10.82;6.10;;;;;;;;;;5068969;28;20119;-78
2022/03/28 10:32:20;;;;;;;12.38;6.18;;;;;;;;;;5052365;28;20048;-78
2022/03/28 10:34:53;;;;;;;10.07;5.80;;;;;;;;;;5068785;28;20044;-78
2022/03/28 10:37:31;;;;;;;10.40;5.95;;;;;;;;;;5068318;28;20032;-78
2022/03/28 10:40:15;;;;;;;10.75;6.22;;;;;;;;;;5068934;28;20044;-78
2022/03/28 10:42:47;;;;;;;14.88;6.85;;;;;;;;;;5069078;28;20070;-78
2022/03/28 10:45:19;;;;;;;13.27;6.53;;;;;;;;;;5068314;28;20040;-77
2022/03/28 10:47:47;;;;;;;12.75;6.18;;;;;;;;;;5052795;28;20059;-77
2022/03/28 10:50:14;;;;;;;14.80;7.28;;;;;;;;;;5068572;28;20125;-78
2022/03/28 10:52:59;;;;;;;13.05;6.68;;;;;;;;;;5068933;28;20500;-78
2022/03/28 10:55:33;;;;;;;14.48;7.13;;;;;;;;;;5068449;28;20068;-78
2022/03/28 10:58:18;;;;;;;15.43;7.00;;;;;;;;;;5051769;28;20047;-78
2022/03/28 11:01:03;;;;;;;12.43;7.00;;;;;;;;;;5068488;28;20032;-78
2022/03/28 11:03:46;;;;;;;13.00;7.10;;;;;;;;;;5068065;28;20051;-78
2022/03/28 11:06:13;;;;;;;15.30;7.38;;;;;;;;;;5068213;28;20131;-78
2022/03/28 11:08:40;;;;;;;13.45;7.30;;;;;;;;;;5068668;28;20048;-78
2022/03/28 11:11:13;;;;;;;14.60;7.72;;;;;;;;;;5068398;28;20043;-78
2022/03/28 11:13:39;;;;;;;15.73;7.93;;;;;;;;;;5066650;28;20174;-78
2022/03/28 11:16:05;;;;;;;14.05;7.97;;;;;;;;;;5067982;28;20499;-76
2022/03/28 11:18:31;;;;;;;13.85;7.15;;;;;;;;;;5067547;28;20056;-77
2022/03/28 11:20:57;;;;;;;13.95;7.43;;;;;;;;;;5068614;28;20547;-77
2022/03/28 11:23:23;;;;;;;13.95;7.72;;;;;;;;;;5068139;28;20033;-78
2022/03/28 11:25:51;;;;;;;13.07;7.85;;;;;;;;;;5068173;28;20032;-78
2022/03/28 11:28:22;;;;;;;11.40;6.85;;;;;;;;;;5051122;28;20523;-77
2022/03/28 11:30:48;;;;;;;17.05;8.07;;;;;;;;;;5068348;28;20041;-77
2022/03/28 11:33:18;;;;;;;15.65;8.80;;;;;;;;;;5069485;28;20090;-78
2022/03/28 11:36:11;;;;;;;14.63;8.10;;;;;;;;;;5067989;28;20036;-78
2022/03/28 11:38:38;;;;;;;16.27;9.10;;;;;;;;;;5047765;28;20048;-78
2022/03/28 11:41:05;;;;;;;14.95;8.95;;;;;;;;;;5051874;28;20555;-78
2022/03/28 11:43:33;;;;;;;14.98;8.40;;;;;;;;;;5067644;28;20033;-78
2022/03/28 11:46:00;;;;;;;18.25;8.15;;;;;;;;;;5067487;28;20080;-76
2022/03/28 11:48:27;;;;;;;15.82;8.50;;;;;;;;;;5068048;28;20404;-75
2022/03/28 11:50:55;;;;;;;13.77;8.30;;;;;;;;;;5067671;28;20040;-75
2022/03/28 11:53:21;;;;;;;17.23;8.52;;;;;;;;;;5051236;28;20118;-77
2022/03/28 11:55:49;;;;;;;15.18;8.98;;;;;;;;;;5051122;28;20051;-76
2022/03/28 11:58:15;;;;;;;14.40;8.95;;;;;;;;;;5050638;28;20037;-77
2022/03/28 12:00:42;;;;;;;15.35;9.38;;;;;;;;;;5051097;28;20068;-77
2022/03/28 12:03:11;;;;;;;14.07;8.75;;;;;;;;;;5068105;28;20090;-76
2022/03/28 12:05:39;;;;;;;14.85;9.35;;;;;;;;;;5067761;28;20052;-76
2022/03/28 12:08:08;;;;;;;18.48;10.45;;;;;;;;;;5067741;28;20107;-77
2022/03/28 12:10:35;;;;;;;17.88;9.98;;;;;;;;;;5069183;28;20060;-77
2022/03/28 12:13:03;;;;;;;16.95;9.75;;;;;;;;;;5068105;28;20040;-75
2022/03/28 12:15:34;;;;;;;17.05;10.00;;;;;;;;;;5067599;28;20487;-77
2022/03/28 12:18:01;;;;;;;17.27;10.05;;;;;;;;;;5068041;28;20130;-77
2022/03/28 12:20:29;;;;;;;20.25;11.15;;;;;;;;;;5067381;28;20093;-76
2022/03/28 12:22:55;;;;;;;18.23;10.77;;;;;;;;;;5067844;28;20071;-77
2022/03/28 12:25:25;;;;;;;18.73;11.10;;;;;;;;;;5067601;28;20581;-75
2022/03/28 12:27:53;;;;;;;19.98;11.57;;;;;;;;;;5067490;28;20052;-77
2022/03/28 12:30:20;;;;;;;21.60;12.18;;;;;;;;;;5069914;28;20052;-77
2022/03/28 12:32:46;;;;;;;23.00;13.18;;;;;;;;;;5055109;28;20032;-76
2022/03/28 12:35:12;;;;;;;19.63;11.98;;;;;;;;;;5071124;28;20033;-76
2022/03/28 12:37:38;;;;;;;18.50;11.93;;;;;;;;;;5071277;28;20140;-77
2022/03/28 12:40:06;;;;;;;22.33;13.32;;;;;;;;;;5071328;28;20116;-77
2022/03/28 12:42:33;;;;;;;22.17;13.05;;;;;;;;;;5070549;28;20141;-77
2022/03/28 12:45:00;;;;;;;20.85;12.23;;;;;;;;;;5071210;28;20041;-77
2022/03/28 12:47:27;;;;;;;21.80;13.88;;;;;;;;;;5054173;28;20044;-77
2022/03/28 12:49:53;;;;;;;27.30;15.52;;;;;;;;;;5072350;28;20041;-77
2022/03/28 12:52:24;;;;;;;26.75;15.25;;;;;;;;;;5071295;28;20490;-77
2022/03/28 12:54:57;;;;;;;24.95;14.60;;;;;;;;;;5071202;28;20439;-77
2022/03/28 12:57:28;;;;;;;25.60;14.52;;;;;;;;;;5070886;28;20044;-77
2022/03/28 12:59:54;;;;;;;28.30;15.60;;;;;;;;;;5070953;28;20089;-77
2022/03/28 13:02:21;;;;;;;26.95;15.43;;;;;;;;;;5054689;28;20518;-77
2022/03/28 13:04:49;;;;;;;23.80;14.68;;;;;;;;;;5071391;28;20399;-77
2022/03/28 13:07:23;;;;;;;25.13;14.73;;;;;;;;;;5070659;28;20048;-76
2022/03/28 13:09:54;;;;;;;26.15;15.50;;;;;;;;;;5070826;28;20048;-77
2022/03/28 13:12:20;;;;;;;26.38;15.80;;;;;;;;;;5070941;28;20579;-77
2022/03/28 13:14:50;;;;;;;24.50;14.48;;;;;;;;;;5071075;28;20045;-77
2022/03/28 13:17:16;;;;;;;26.55;15.75;;;;;;;;;;5070237;28;20127;-77
2022/03/28 13:19:54;;;;;;;23.77;14.50;;;;;;;;;;5070554;28;20028;-77
2022/03/28 13:22:25;;;;;;;25.80;15.02;;;;;;;;;;5070452;28;20111;-77
2022/03/28 13:25:05;;;;;;;25.77;15.35;;;;;;;;;;5053925;28;20044;-77
2022/03/28 13:30:16;;;;;;;24.75;14.38;;;;;;;;;;5069361;28;20132;-77
2022/03/28 13:32:43;;;;;;;22.33;13.05;;;;;;;;;;5053777;28;20067;-76
2022/03/28 13:35:09;;;;;;;22.95;13.93;;;;;;;;;;5054042;28;20458;-77
2022/03/28 13:37:35;;;;;;;23.00;13.68;;;;;;;;;;5070347;28;20040;-77
2022/03/28 13:40:01;;;;;;;22.15;13.50;;;;;;;;;;5069986;28;20037;-77
2022/03/28 13:42:27;;;;;;;24.83;14.45;;;;;;;;;;5053461;28;20037;-77
2022/03/28 13:44:53;;;;;;;23.88;14.13;;;;;;;;;;5053821;28;20385;-77
2022/03/28 13:47:19;;;;;;;23.98;14.02;;;;;;;;;;5069912;28;20037;-77
2022/03/28 13:49:46;;;;;;;18.48;11.45;;;;;;;;;;5053652;28;20047;-76
2022/03/28 13:52:12;;;;;;;20.45;11.98;;;;;;;;;;5070037;28;20044;-76
2022/03/28 13:54:38;;;;;;;21.98;12.13;;;;;;;;;;5071461;28;20043;-76
2022/03/28 13:57:04;;;;;;;18.75;12.48;;;;;;;;;;5053367;28;20411;-77
2022/03/28 13:59:30;;;;;;;18.75;11.70;;;;;;;;;;5069690;28;20037;-76
2022/03/28 14:01:56;;;;;;;19.67;12.13;;;;;;;;;;5069762;28;20067;-76
2022/03/28 14:04:22;;;;;;;16.35;11.23;;;;;;;;;;5069524;28;20029;-76
2022/03/28 14:06:49;;;;;;;19.92;12.50;;;;;;;;;;5069655;28;20042;-76
2022/03/28 14:09:16;;;;;;;20.90;12.30;;;;;;;;;;5053228;28;20403;-76
2022/03/28 14:11:42;;;;;;;18.38;12.38;;;;;;;;;;5052785;28;20373;-76
2022/03/28 14:14:08;;;;;;;16.98;11.93;;;;;;;;;;5053372;28;20418;-77
2022/03/28 14:16:34;;;;;;;19.13;12.02;;;;;;;;;;5069264;28;20040;-75
2022/03/28 14:19:00;;;;;;;19.80;11.32;;;;;;;;;;5067225;28;20052;-76
2022/03/28 14:21:26;;;;;;;17.55;11.15;;;;;;;;;;5069208;28;20043;-76
2022/03/28 14:23:52;;;;;;;19.98;12.43;;;;;;;;;;5068591;28;20036;-76
2022/03/28 14:26:20;;;;;;;18.25;11.55;;;;;;;;;;5069157;28;20052;-76
2022/03/28 14:28:46;;;;;;;18.05;10.85;;;;;;;;;;5068576;28;20072;-76
2022/03/28 14:31:13;;;;;;;17.33;10.82;;;;;;;;;;5068836;28;20048;-76
2022/03/28 14:33:39;;;;;;;16.88;11.00;;;;;;;;;;5069256;28;20044;-76
2022/03/28 14:36:05;;;;;;;15.93;10.70;;;;;;;;;;5069141;28;20048;-76